Time;durP1;ratioP1;P1;durP2;ratioP2;P2;SDS_P1;SDS_P2;PMS_P1;PMS_P2;Temp;Humidity;BMP_temperature;BMP_pressure;BME280_temperature;BME280_humidity;BME280_pressure;Samples;Min_cycle;Max_cycle;Signal;HPM_P1;HPM_P2
2023/03/16 00:01:27;;;;;;;8.00;5.90;;;5.90;99.90;;;;;;5034538;28;20924;-65
2023/03/16 00:03:52;;;;;;;8.73;6.40;;;5.80;99.90;;;;;;5035137;28;20188;-65
2023/03/16 00:06:18;;;;;;;6.60;5.87;;;5.80;99.90;;;;;;5035268;28;20212;-67
2023/03/16 00:08:43;;;;;;;8.43;5.73;;;5.80;99.90;;;;;;5032471;28;20183;-66
2023/03/16 00:11:11;;;;;;;7.93;6.30;;;5.80;99.90;;;;;;5028996;28;20763;-64
2023/03/16 00:13:36;;;;;;;6.90;6.20;;;5.80;99.90;;;;;;5033364;28;20269;-64
2023/03/16 00:16:06;;;;;;;5.83;5.23;;;5.80;99.90;;;;;;5030741;28;20905;-65
2023/03/16 00:18:37;;;;;;;6.30;5.53;;;5.80;99.90;;;;;;5029404;28;20221;-64
2023/03/16 00:21:04;;;;;;;8.20;5.53;;;5.70;99.90;;;;;;5025547;28;20496;-64
2023/03/16 00:23:34;;;;;;;7.87;5.27;;;5.80;99.90;;;;;;5028244;28;20981;-64
2023/03/16 00:26:05;;;;;;;6.53;4.97;;;5.80;99.90;;;;;;5034166;28;20639;-65
2023/03/16 00:28:34;;;;;;;7.33;5.57;;;5.70;99.90;;;;;;5035169;28;20423;-64
2023/03/16 00:31:04;;;;;;;9.67;5.67;;;5.70;99.90;;;;;;5036760;28;20503;-64
2023/03/16 00:33:33;;;;;;;6.20;5.40;;;5.70;99.90;;;;;;5032515;28;20431;-65
2023/03/16 00:36:02;;;;;;;6.07;4.40;;;5.70;99.90;;;;;;5030024;28;20538;-64
2023/03/16 00:38:34;;;;;;;5.73;5.13;;;5.70;99.90;;;;;;5032623;28;20433;-64
2023/03/16 00:41:04;;;;;;;6.37;4.87;;;5.60;99.90;;;;;;5033453;28;20541;-65
2023/03/16 00:43:39;;;;;;;5.93;5.33;;;5.60;99.90;;;;;;5033198;28;20415;-65
2023/03/16 00:46:06;;;;;;;6.70;5.17;;;5.60;99.90;;;;;;5026142;28;20483;-64
2023/03/16 00:48:33;;;;;;;7.50;5.43;;;5.60;99.90;;;;;;5033179;28;20466;-65
2023/03/16 00:51:00;;;;;;;8.10;5.57;;;5.60;99.90;;;;;;5026923;28;20932;-65
2023/03/16 00:53:26;;;;;;;6.30;5.27;;;5.60;99.90;;;;;;5030338;28;20859;-64
2023/03/16 00:55:52;;;;;;;6.63;5.47;;;5.60;99.90;;;;;;5030235;28;20439;-64
2023/03/16 00:58:18;;;;;;;7.17;4.80;;;5.60;99.90;;;;;;5033881;28;20569;-65
2023/03/16 01:00:45;;;;;;;6.63;5.10;;;5.60;99.90;;;;;;5032954;28;21109;-64
2023/03/16 01:03:10;;;;;;;6.73;4.93;;;5.60;99.90;;;;;;5031395;28;21599;-64
2023/03/16 01:05:40;;;;;;;7.13;5.00;;;5.50;99.90;;;;;;5030179;28;20509;-64
2023/03/16 01:08:09;;;;;;;6.47;4.80;;;5.60;99.90;;;;;;5032388;28;20214;-65
2023/03/16 01:10:35;;;;;;;6.07;4.70;;;5.50;99.90;;;;;;5026296;28;20852;-64
2023/03/16 01:13:02;;;;;;;6.10;5.10;;;5.50;99.90;;;;;;5033705;28;20449;-64
2023/03/16 01:15:29;;;;;;;5.33;4.80;;;5.50;99.90;;;;;;5030755;28;20195;-65
2023/03/16 01:17:55;;;;;;;5.90;5.30;;;5.50;99.90;;;;;;5027696;28;20976;-64
2023/03/16 01:20:20;;;;;;;7.27;5.63;;;5.50;99.90;;;;;;5030510;28;20555;-64
2023/03/16 01:22:46;;;;;;;7.60;5.63;;;5.40;99.90;;;;;;5030697;28;20202;-64
2023/03/16 01:25:12;;;;;;;6.47;4.77;;;5.40;99.90;;;;;;5035179;28;20302;-64
2023/03/16 01:27:38;;;;;;;6.10;5.17;;;5.40;99.90;;;;;;5031500;28;20501;-64
2023/03/16 01:30:05;;;;;;;7.40;5.53;;;5.40;99.90;;;;;;5026809;28;20468;-64
2023/03/16 01:32:31;;;;;;;8.43;5.30;;;5.40;99.90;;;;;;5024588;28;20196;-64
2023/03/16 01:34:57;;;;;;;5.80;5.20;;;5.40;99.90;;;;;;5032055;28;20485;-64
2023/03/16 01:37:22;;;;;;;8.80;5.43;;;5.40;99.90;;;;;;5029801;28;20541;-64
2023/03/16 01:39:48;;;;;;;8.17;5.70;;;5.30;99.90;;;;;;5026781;28;20212;-64
2023/03/16 01:42:14;;;;;;;6.97;5.57;;;5.30;99.90;;;;;;5029033;28;20770;-64
2023/03/16 01:45:00;;;;;;;7.83;5.80;;;5.30;99.90;;;;;;5028245;28;20434;-64
2023/03/16 01:47:26;;;;;;;8.80;6.30;;;5.30;99.90;;;;;;5028852;28;20204;-65
2023/03/16 01:49:54;;;;;;;7.73;5.53;;;5.30;99.90;;;;;;5029800;28;20441;-65
2023/03/16 01:52:23;;;;;;;5.77;5.17;;;5.30;99.90;;;;;;5029419;28;20790;-64
2023/03/16 01:55:01;;;;;;;6.90;5.70;;;5.30;99.90;;;;;;5026648;28;20430;-64
2023/03/16 01:57:34;;;;;;;7.67;6.03;;;5.20;99.90;;;;;;5024972;28;20499;-64
2023/03/16 02:00:09;;;;;;;7.90;5.73;;;5.30;99.90;;;;;;5027769;28;20548;-65
2023/03/16 02:02:38;;;;;;;7.20;5.07;;;5.20;99.90;;;;;;5027592;28;20505;-64
2023/03/16 02:05:15;;;;;;;7.43;5.77;;;5.20;99.90;;;;;;5030662;28;20424;-65
2023/03/16 02:07:45;;;;;;;5.63;5.00;;;5.20;99.90;;;;;;5028410;28;20484;-64
2023/03/16 02:10:14;;;;;;;6.80;5.03;;;5.20;99.90;;;;;;5025475;28;20449;-64
2023/03/16 02:12:40;;;;;;;6.00;5.33;;;5.20;99.90;;;;;;5029944;28;20818;-64
2023/03/16 02:15:06;;;;;;;10.13;4.97;;;5.20;99.90;;;;;;5025308;28;20435;-65
2023/03/16 02:17:34;;;;;;;10.83;5.90;;;5.20;99.90;;;;;;5026842;28;20602;-64
2023/03/16 02:20:41;;;;;;;6.80;4.70;;;5.20;99.90;;;;;;5025170;28;20470;-64
2023/03/16 02:23:17;;;;;;;6.97;5.30;;;5.20;99.90;;;;;;5023042;28;20434;-64
2023/03/16 02:26:09;;;;;;;7.40;5.37;;;5.20;99.90;;;;;;5028222;28;20510;-65
2023/03/16 02:28:47;;;;;;;6.20;4.97;;;5.20;99.90;;;;;;5024164;28;20511;-64
2023/03/16 02:31:15;;;;;;;6.13;4.70;;;5.20;99.90;;;;;;5027115;28;20434;-65
2023/03/16 02:33:42;;;;;;;6.93;5.60;;;5.20;99.90;;;;;;5029943;28;20425;-64
2023/03/16 02:36:08;;;;;;;6.33;4.90;;;5.20;99.90;;;;;;5023940;28;20497;-65
2023/03/16 02:38:34;;;;;;;8.60;4.77;;;5.20;99.90;;;;;;5027015;28;20427;-64
2023/03/16 02:41:20;;;;;;;6.93;4.40;;;5.10;99.90;;;;;;5023399;28;20467;-64
2023/03/16 02:43:53;;;;;;;5.83;5.20;;;5.10;99.90;;;;;;5028216;28;20543;-65
2023/03/16 02:46:24;;;;;;;8.30;5.70;;;5.10;99.90;;;;;;5030405;28;21268;-64
2023/03/16 02:49:11;;;;;;;6.83;5.40;;;5.10;99.90;;;;;;5025682;28;20478;-64
2023/03/16 02:51:36;;;;;;;7.43;5.53;;;5.10;99.90;;;;;;5032337;28;20438;-64
2023/03/16 02:54:02;;;;;;;8.30;5.60;;;5.10;99.90;;;;;;5027562;28;20829;-64
2023/03/16 02:56:28;;;;;;;8.13;4.87;;;5.10;99.90;;;;;;5025889;28;20202;-64
2023/03/16 02:58:56;;;;;;;6.33;4.67;;;5.10;99.90;;;;;;5030805;28;20556;-64
2023/03/16 03:01:22;;;;;;;8.30;4.70;;;5.10;99.90;;;;;;5027907;28;20215;-64
2023/03/16 03:03:48;;;;;;;4.90;4.13;;;5.10;99.90;;;;;;5029467;28;20480;-64
2023/03/16 03:06:14;;;;;;;7.53;5.00;;;5.10;99.90;;;;;;5023298;28;20474;-64
2023/03/16 03:08:41;;;;;;;7.60;4.80;;;5.10;99.90;;;;;;5032458;28;20203;-64
2023/03/16 03:11:07;;;;;;;5.17;4.60;;;5.10;99.90;;;;;;5028728;28;20521;-64
2023/03/16 03:13:33;;;;;;;5.50;4.63;;;5.10;99.90;;;;;;5029570;28;20442;-64
2023/03/16 03:15:58;;;;;;;5.07;4.50;;;5.10;99.90;;;;;;5028739;28;20434;-64
2023/03/16 03:18:24;;;;;;;6.43;5.17;;;5.00;99.90;;;;;;5027899;28;20191;-64
2023/03/16 03:20:50;;;;;;;5.60;4.87;;;5.10;99.90;;;;;;5030084;28;20216;-64
2023/03/16 03:23:15;;;;;;;6.40;4.50;;;5.00;99.90;;;;;;5030214;28;20177;-64
2023/03/16 03:25:41;;;;;;;6.80;5.00;;;5.00;99.90;;;;;;5036949;28;20212;-65
2023/03/16 03:28:08;;;;;;;4.70;4.17;;;5.00;99.90;;;;;;5034291;28;20200;-64
2023/03/16 03:30:34;;;;;;;6.93;4.30;;;5.00;99.90;;;;;;5031233;28;20449;-64
2023/03/16 03:33:00;;;;;;;5.73;4.10;;;5.00;99.90;;;;;;5030401;28;20441;-64
2023/03/16 03:35:26;;;;;;;6.13;4.50;;;5.00;99.90;;;;;;5033142;28;20427;-64
2023/03/16 03:37:52;;;;;;;7.10;4.60;;;5.00;99.90;;;;;;5032876;28;20981;-64
2023/03/16 03:40:19;;;;;;;7.87;4.63;;;5.00;99.90;;;;;;5025565;28;20502;-64
2023/03/16 03:42:45;;;;;;;5.63;4.70;;;4.90;99.90;;;;;;5028824;28;20564;-64
2023/03/16 03:45:12;;;;;;;6.40;4.60;;;5.00;99.90;;;;;;5033335;28;21445;-64
2023/03/16 03:47:39;;;;;;;7.20;4.30;;;4.90;99.90;;;;;;5029777;28;20538;-64
2023/03/16 03:50:05;;;;;;;4.33;3.87;;;4.90;99.90;;;;;;5030580;28;20438;-64
2023/03/16 03:52:31;;;;;;;6.40;4.20;;;4.90;99.90;;;;;;5033518;28;20499;-64
2023/03/16 03:54:56;;;;;;;5.20;4.07;;;4.90;99.90;;;;;;5031421;28;20438;-64
2023/03/16 03:57:22;;;;;;;7.10;4.63;;;4.80;99.90;;;;;;5027826;28;20282;-64
2023/03/16 03:59:48;;;;;;;5.53;4.40;;;4.80;99.90;;;;;;5024861;28;20992;-65
2023/03/16 04:02:13;;;;;;;6.80;4.53;;;4.80;99.90;;;;;;5032583;28;20171;-64
2023/03/16 04:04:42;;;;;;;5.90;4.73;;;4.90;99.90;;;;;;5025579;28;20197;-64
2023/03/16 04:07:08;;;;;;;5.07;4.57;;;4.90;99.90;;;;;;5034071;28;20207;-64
2023/03/16 04:09:34;;;;;;;5.73;4.50;;;4.90;99.90;;;;;;5025482;28;20493;-64
2023/03/16 04:12:00;;;;;;;7.43;4.30;;;4.80;99.90;;;;;;5029796;28;20811;-64
2023/03/16 04:14:27;;;;;;;7.70;4.67;;;4.90;99.90;;;;;;5030791;28;20188;-64
2023/03/16 04:16:53;;;;;;;7.93;5.00;;;4.90;99.90;;;;;;5029517;28;20461;-65
2023/03/16 04:19:19;;;;;;;7.57;5.30;;;4.90;99.90;;;;;;5031055;28;20443;-64
2023/03/16 04:21:45;;;;;;;8.83;5.20;;;4.90;99.90;;;;;;5031053;28;20851;-64
2023/03/16 04:24:13;;;;;;;7.30;5.10;;;4.90;99.90;;;;;;5029157;28;20438;-67
2023/03/16 04:26:39;;;;;;;6.77;5.10;;;4.90;99.90;;;;;;5034901;28;20200;-64
2023/03/16 04:29:05;;;;;;;7.33;4.57;;;4.90;99.90;;;;;;5032473;28;20430;-64
2023/03/16 04:31:31;;;;;;;7.43;5.43;;;4.90;99.90;;;;;;5028600;28;20443;-64
2023/03/16 04:33:56;;;;;;;6.57;5.33;;;5.00;99.90;;;;;;5030055;28;20241;-64
2023/03/16 04:36:25;;;;;;;9.47;6.00;;;5.00;99.90;;;;;;5029982;28;20199;-64
2023/03/16 04:38:50;;;;;;;6.87;5.00;;;5.00;99.90;;;;;;5027474;28;20183;-64
2023/03/16 04:41:17;;;;;;;6.93;4.40;;;5.00;99.90;;;;;;5028281;28;20886;-64
2023/03/16 04:43:43;;;;;;;6.33;5.17;;;5.00;99.90;;;;;;5031981;28;20280;-64
2023/03/16 04:46:09;;;;;;;6.40;5.47;;;5.00;99.90;;;;;;5026251;28;20899;-64
2023/03/16 04:48:35;;;;;;;8.60;5.70;;;5.00;99.90;;;;;;5027995;28;20954;-64
2023/03/16 04:51:02;;;;;;;8.40;5.87;;;5.00;99.90;;;;;;5033419;28;20438;-64
2023/03/16 04:53:28;;;;;;;10.17;5.67;;;5.00;99.90;;;;;;5029047;28;20685;-64
2023/03/16 04:55:54;;;;;;;7.13;5.53;;;5.00;99.90;;;;;;5029244;28;20529;-64
2023/03/16 04:58:19;;;;;;;7.00;6.30;;;5.00;99.90;;;;;;5033284;28;20561;-64
2023/03/16 05:00:45;;;;;;;7.13;6.20;;;5.00;99.90;;;;;;5029165;28;20223;-64
2023/03/16 05:03:11;;;;;;;7.87;6.30;;;5.00;99.90;;;;;;5031945;28;20206;-64
2023/03/16 05:05:38;;;;;;;8.50;5.63;;;5.00;99.90;;;;;;5033103;28;20204;-65
2023/03/16 05:08:05;;;;;;;7.50;5.97;;;5.00;99.90;;;;;;5029673;28;20204;-64
2023/03/16 05:10:32;;;;;;;6.90;5.40;;;5.00;99.90;;;;;;5029674;28;20458;-64
2023/03/16 05:12:57;;;;;;;8.87;6.70;;;5.00;99.90;;;;;;5031028;28;20490;-64
2023/03/16 05:15:23;;;;;;;7.67;5.90;;;5.00;99.90;;;;;;5032312;28;20958;-64
2023/03/16 05:17:49;;;;;;;7.00;5.60;;;5.00;99.90;;;;;;5025982;28;20472;-64
2023/03/16 05:20:14;;;;;;;6.97;6.27;;;5.00;99.90;;;;;;5025816;28;20243;-64
2023/03/16 05:22:42;;;;;;;7.80;5.60;;;5.00;99.90;;;;;;5032682;28;20845;-64
2023/03/16 05:25:08;;;;;;;10.07;6.17;;;5.00;99.90;;;;;;5027593;28;20194;-64
2023/03/16 05:27:34;;;;;;;7.10;5.80;;;5.00;99.90;;;;;;5028284;28;20447;-65
2023/03/16 05:30:00;;;;;;;10.50;6.53;;;5.00;99.90;;;;;;5026644;28;21124;-64
2023/03/16 05:32:26;;;;;;;8.83;6.40;;;5.00;99.90;;;;;;5027270;28;20380;-65
2023/03/16 05:34:54;;;;;;;8.50;6.33;;;5.00;99.90;;;;;;5031068;28;20446;-64
2023/03/16 05:37:20;;;;;;;10.67;7.07;;;5.00;99.90;;;;;;5026604;28;20478;-64
2023/03/16 05:39:45;;;;;;;7.40;6.70;;;4.90;99.90;;;;;;5029622;28;20490;-64
2023/03/16 05:42:11;;;;;;;12.53;6.83;;;4.90;99.90;;;;;;5026253;28;20214;-64
2023/03/16 05:44:36;;;;;;;9.00;6.87;;;4.90;99.90;;;;;;5028555;28;20710;-65
2023/03/16 05:47:02;;;;;;;7.93;6.90;;;4.90;99.90;;;;;;5032634;28;20262;-64
2023/03/16 05:49:28;;;;;;;10.03;6.40;;;4.90;99.90;;;;;;5029147;28;20181;-64
2023/03/16 05:51:53;;;;;;;13.33;7.70;;;4.80;99.90;;;;;;5032447;28;20533;-65
2023/03/16 05:54:19;;;;;;;9.67;6.70;;;4.80;99.90;;;;;;5030070;28;20209;-64
2023/03/16 05:56:45;;;;;;;11.00;8.77;;;4.80;99.90;;;;;;5029135;28;20629;-64
2023/03/16 05:59:10;;;;;;;9.90;7.77;;;4.80;99.90;;;;;;5027512;28;20223;-64
2023/03/16 06:01:36;;;;;;;9.10;7.70;;;4.80;99.90;;;;;;5029414;28;20231;-64
2023/03/16 06:04:04;;;;;;;10.63;7.80;;;4.80;99.90;;;;;;5030660;28;20211;-64
2023/03/16 06:06:30;;;;;;;10.87;8.27;;;4.80;99.90;;;;;;5030998;28;20562;-64
2023/03/16 06:08:55;;;;;;;9.67;7.60;;;4.70;99.90;;;;;;5029511;28;20423;-66
2023/03/16 06:11:21;;;;;;;9.87;7.60;;;4.70;99.90;;;;;;5028493;28;20653;-64
2023/03/16 06:13:46;;;;;;;9.67;7.57;;;4.80;99.90;;;;;;5030847;28;21747;-64
2023/03/16 06:16:13;;;;;;;10.47;8.03;;;4.80;99.90;;;;;;5030056;28;20812;-64
2023/03/16 06:18:39;;;;;;;12.53;7.80;;;4.80;99.90;;;;;;5028226;28;20207;-64
2023/03/16 06:21:05;;;;;;;12.03;8.37;;;4.80;99.90;;;;;;5030664;28;20463;-64
2023/03/16 06:23:31;;;;;;;9.83;8.30;;;4.80;99.90;;;;;;5026954;28;20639;-65
2023/03/16 06:25:58;;;;;;;8.80;7.47;;;4.90;99.90;;;;;;5032891;28;20183;-64
2023/03/16 06:28:24;;;;;;;10.17;8.67;;;4.90;99.90;;;;;;5028737;28;20225;-65
2023/03/16 06:30:53;;;;;;;12.13;8.67;;;4.90;99.90;;;;;;5027418;28;21102;-65
2023/03/16 06:33:19;;;;;;;12.77;8.63;;;4.90;99.90;;;;;;5027628;28;20265;-65
2023/03/16 06:35:47;;;;;;;11.40;9.03;;;5.00;99.90;;;;;;5029944;28;20443;-65
2023/03/16 06:38:12;;;;;;;9.90;8.17;;;5.00;99.90;;;;;;5025383;28;20693;-65
2023/03/16 06:40:39;;;;;;;13.67;9.30;;;5.00;99.90;;;;;;5031057;28;20505;-65
2023/03/16 06:43:05;;;;;;;13.17;9.00;;;5.00;99.90;;;;;;5031592;28;20443;-65
2023/03/16 06:45:30;;;;;;;15.73;8.97;;;5.00;99.90;;;;;;5035474;28;20493;-65
2023/03/16 06:47:56;;;;;;;11.80;9.77;;;5.00;99.90;;;;;;5032259;28;20196;-65
2023/03/16 06:50:21;;;;;;;14.30;9.37;;;5.10;99.90;;;;;;5034324;28;20188;-65
2023/03/16 06:52:47;;;;;;;11.47;9.07;;;5.10;99.90;;;;;;5032208;28;20905;-65
2023/03/16 06:55:13;;;;;;;14.80;8.90;;;5.10;99.90;;;;;;5027944;28;20199;-65
2023/03/16 06:57:40;;;;;;;9.00;7.87;;;5.10;99.90;;;;;;5033029;28;20199;-65
2023/03/16 07:00:09;;;;;;;10.83;8.10;;;5.10;99.90;;;;;;5037659;28;20445;-65
2023/03/16 07:02:34;;;;;;;10.70;7.83;;;5.20;99.90;;;;;;5027183;28;20426;-65
2023/03/16 07:05:01;;;;;;;9.23;7.30;;;5.20;99.90;;;;;;5031812;28;20460;-65
2023/03/16 07:07:26;;;;;;;8.60;7.43;;;5.20;99.90;;;;;;5030176;28;20204;-65
2023/03/16 07:09:52;;;;;;;8.50;6.57;;;5.20;99.90;;;;;;5030193;28;20437;-65
2023/03/16 07:12:17;;;;;;;12.53;8.27;;;5.20;99.90;;;;;;5031917;28;20290;-65
2023/03/16 07:14:43;;;;;;;9.57;7.50;;;5.20;99.90;;;;;;5034306;28;20302;-65
2023/03/16 07:17:08;;;;;;;13.50;9.23;;;5.30;99.90;;;;;;5029453;28;20218;-65
2023/03/16 07:19:34;;;;;;;12.20;8.23;;;5.30;99.90;;;;;;5032477;28;20262;-65
2023/03/16 07:22:01;;;;;;;10.43;8.43;;;5.30;99.90;;;;;;5027717;28;20176;-65
2023/03/16 07:24:27;;;;;;;13.90;9.57;;;5.40;99.90;;;;;;5030260;28;20242;-65
2023/03/16 07:26:53;;;;;;;12.70;9.20;;;5.40;99.90;;;;;;5035075;28;20453;-65
2023/03/16 07:29:18;;;;;;;13.03;8.80;;;5.40;99.90;;;;;;5029868;28;20254;-65
2023/03/16 07:31:44;;;;;;;13.17;10.20;;;5.50;99.90;;;;;;5036464;28;20184;-65
2023/03/16 07:34:10;;;;;;;11.80;8.10;;;5.50;99.90;;;;;;5035226;28;21760;-65
2023/03/16 07:36:36;;;;;;;11.00;8.00;;;5.50;99.90;;;;;;5034299;28;20579;-65
2023/03/16 07:39:02;;;;;;;10.93;7.83;;;5.60;99.90;;;;;;5030275;28;20916;-65
2023/03/16 07:41:27;;;;;;;10.23;8.00;;;5.60;99.90;;;;;;5031368;28;20310;-65
2023/03/16 07:43:53;;;;;;;9.90;7.50;;;5.60;99.90;;;;;;5034991;28;20912;-65
2023/03/16 07:46:19;;;;;;;10.20;7.13;;;5.70;99.90;;;;;;5031213;28;20267;-65
2023/03/16 07:48:44;;;;;;;11.47;6.77;;;5.80;99.90;;;;;;5029151;28;20184;-64
2023/03/16 07:51:11;;;;;;;8.00;6.50;;;5.80;99.90;;;;;;5028625;28;20784;-64
2023/03/16 07:53:38;;;;;;;8.53;6.93;;;5.90;99.90;;;;;;5026514;28;20198;-64
2023/03/16 07:56:04;;;;;;;8.03;7.17;;;5.90;99.90;;;;;;5032109;28;20495;-65
2023/03/16 07:58:30;;;;;;;10.30;7.87;;;6.00;99.90;;;;;;5033870;28;20434;-65
2023/03/16 08:01:00;;;;;;;11.97;7.17;;;6.00;99.90;;;;;;5033764;28;20497;-64
2023/03/16 08:03:27;;;;;;;10.80;6.90;;;6.10;99.90;;;;;;5031887;28;20176;-64
2023/03/16 08:05:54;;;;;;;8.43;6.00;;;6.10;99.90;;;;;;5031244;28;20435;-64
2023/03/16 08:08:21;;;;;;;7.17;6.30;;;6.20;99.90;;;;;;5025564;28;20445;-65
2023/03/16 08:10:48;;;;;;;9.13;5.87;;;6.20;99.90;;;;;;5025154;28;20837;-65
2023/03/16 08:13:14;;;;;;;7.00;5.83;;;6.30;99.90;;;;;;5030052;28;20534;-65
2023/03/16 08:15:40;;;;;;;8.57;6.60;;;6.40;99.90;;;;;;5036359;28;21318;-65
2023/03/16 08:18:06;;;;;;;6.23;5.63;;;6.40;99.90;;;;;;5032038;28;20208;-65
2023/03/16 08:20:32;;;;;;;8.53;6.67;;;6.50;99.90;;;;;;5032193;28;20208;-65
2023/03/16 08:22:58;;;;;;;9.13;6.37;;;6.60;99.90;;;;;;5031293;28;20464;-64
2023/03/16 08:25:24;;;;;;;8.83;5.73;;;6.60;99.90;;;;;;5035949;28;20543;-65
2023/03/16 08:27:49;;;;;;;8.00;6.97;;;6.70;99.90;;;;;;5029677;28;20206;-65
2023/03/16 08:30:16;;;;;;;6.87;5.33;;;6.70;99.90;;;;;;5033543;28;20275;-65
2023/03/16 08:32:41;;;;;;;7.20;6.30;;;6.80;99.90;;;;;;5027243;28;20211;-65
2023/03/16 08:35:12;;;;;;;7.90;6.57;;;6.90;99.90;;;;;;5030482;28;20431;-65
2023/03/16 08:37:37;;;;;;;13.60;6.07;;;7.00;99.90;;;;;;5032246;28;20207;-65
2023/03/16 08:40:08;;;;;;;7.37;6.47;;;7.10;99.90;;;;;;5032522;28;20473;-65
2023/03/16 08:42:34;;;;;;;8.07;6.50;;;7.10;99.90;;;;;;5028732;28;20168;-65
2023/03/16 08:44:59;;;;;;;10.53;6.70;;;7.20;99.90;;;;;;5031316;28;20443;-65
2023/03/16 08:47:25;;;;;;;10.70;6.63;;;7.20;99.90;;;;;;5033071;28;20207;-65
2023/03/16 08:49:51;;;;;;;12.63;6.67;;;7.30;99.90;;;;;;5031012;28;20564;-65
2023/03/16 08:52:16;;;;;;;7.87;6.40;;;7.40;99.90;;;;;;5027972;28;20220;-65
2023/03/16 08:54:42;;;;;;;11.03;6.37;;;7.40;99.90;;;;;;5026959;28;20219;-66
2023/03/16 08:57:09;;;;;;;9.10;7.10;;;7.50;99.90;;;;;;5028776;28;20716;-65
2023/03/16 08:59:35;;;;;;;7.90;6.23;;;7.60;99.90;;;;;;5031223;28;20442;-65
2023/03/16 09:02:03;;;;;;;7.13;6.10;;;7.70;99.90;;;;;;5033238;28;20502;-65
2023/03/16 09:04:29;;;;;;;7.30;5.57;;;7.70;99.90;;;;;;5023955;28;20442;-65
2023/03/16 09:06:55;;;;;;;6.10;5.50;;;7.80;99.90;;;;;;5025784;28;21134;-65
2023/03/16 09:09:21;;;;;;;10.00;5.20;;;8.00;99.90;;;;;;5030035;28;20484;-65
2023/03/16 09:11:48;;;;;;;9.63;5.33;;;8.10;99.90;;;;;;5029004;28;20462;-65
2023/03/16 09:14:14;;;;;;;7.13;5.17;;;8.20;99.90;;;;;;5025826;28;21012;-66
2023/03/16 09:16:40;;;;;;;9.20;5.27;;;8.30;99.90;;;;;;5027494;28;20516;-66
2023/03/16 09:19:06;;;;;;;5.93;5.17;;;8.40;99.90;;;;;;5028439;28;20200;-65
2023/03/16 09:21:33;;;;;;;7.70;5.27;;;8.50;99.90;;;;;;5031794;28;20242;-66
2023/03/16 09:23:59;;;;;;;7.53;5.20;;;8.60;99.90;;;;;;5029370;28;20431;-65
2023/03/16 09:26:25;;;;;;;6.80;5.13;;;8.70;99.90;;;;;;5028997;28;20444;-65
2023/03/16 09:28:51;;;;;;;8.13;5.43;;;8.90;99.90;;;;;;5025705;28;20466;-65
2023/03/16 09:31:18;;;;;;;6.40;5.27;;;8.90;99.90;;;;;;5029587;28;20282;-65
2023/03/16 09:33:45;;;;;;;7.97;5.47;;;9.00;99.90;;;;;;5030727;28;20393;-65
2023/03/16 09:36:12;;;;;;;6.57;4.97;;;9.10;99.90;;;;;;5031790;28;20594;-66
2023/03/16 09:38:38;;;;;;;5.17;4.43;;;9.20;99.90;;;;;;5028319;28;21176;-65
2023/03/16 09:41:09;;;;;;;6.20;4.80;;;9.30;99.90;;;;;;5033874;28;20473;-65
2023/03/16 09:43:47;;;;;;;7.80;5.13;;;9.30;99.90;;;;;;5031311;28;20509;-66
2023/03/16 09:46:27;;;;;;;5.00;4.47;;;9.40;99.90;;;;;;5029825;28;20534;-66
2023/03/16 09:48:55;;;;;;;6.83;4.70;;;9.40;99.90;;;;;;5025478;28;20453;-66
2023/03/16 09:51:37;;;;;;;7.07;5.03;;;9.50;99.90;;;;;;5028354;28;20426;-66
2023/03/16 09:54:10;;;;;;;6.77;4.40;;;9.60;99.90;;;;;;5032719;28;20443;-65
2023/03/16 09:56:40;;;;;;;5.43;4.77;;;9.60;99.90;;;;;;5027320;28;20583;-66
2023/03/16 09:59:12;;;;;;;5.37;3.83;;;9.70;99.90;;;;;;5027150;28;20484;-65
2023/03/16 10:01:57;;;;;;;8.77;4.70;;;9.70;99.90;;;;;;5029665;28;20586;-65
2023/03/16 10:04:50;;;;;;;6.33;4.80;;;9.70;99.90;;;;;;5026084;28;20454;-65
2023/03/16 10:07:21;;;;;;;5.93;4.87;;;9.60;99.90;;;;;;5033779;28;21286;-65
2023/03/16 10:10:04;;;;;;;6.80;4.30;;;9.60;99.90;;;;;;5023545;28;20430;-66
2023/03/16 10:12:34;;;;;;;4.77;4.27;;;9.70;99.90;;;;;;5027483;28;20436;-65
2023/03/16 10:15:10;;;;;;;6.10;4.50;;;9.80;99.90;;;;;;5025224;28;20861;-65
2023/03/16 10:17:46;;;;;;;7.50;5.10;;;9.90;99.90;;;;;;5030312;28;20947;-65
2023/03/16 10:20:20;;;;;;;6.40;4.40;;;9.90;99.90;;;;;;5026948;28;20961;-65
2023/03/16 10:22:49;;;;;;;9.03;4.80;;;10.00;99.90;;;;;;5029415;28;20431;-66
2023/03/16 10:25:39;;;;;;;5.60;4.27;;;10.10;99.90;;;;;;5030984;28;20419;-65
2023/03/16 10:28:04;;;;;;;6.30;4.20;;;10.10;99.90;;;;;;5026977;28;20465;-66
2023/03/16 10:30:36;;;;;;;5.47;4.03;;;10.20;99.90;;;;;;5030514;28;20439;-65
2023/03/16 10:33:12;;;;;;;5.00;4.10;;;10.30;99.90;;;;;;5026123;28;20184;-65
2023/03/16 10:35:50;;;;;;;4.20;3.80;;;10.30;99.90;;;;;;5027332;28;20796;-66
2023/03/16 10:38:38;;;;;;;8.13;4.30;;;10.40;99.90;;;;;;5030739;28;20845;-65
2023/03/16 10:41:16;;;;;;;4.57;3.40;;;10.50;99.90;;;;;;5030655;28;20467;-66
2023/03/16 10:43:43;;;;;;;5.30;3.80;;;10.50;99.90;;;;;;5029537;28;20437;-66
2023/03/16 10:46:10;;;;;;;7.10;3.53;;;10.60;99.90;;;;;;5028773;28;20453;-66
2023/03/16 10:48:37;;;;;;;5.63;3.77;;;10.60;99.90;;;;;;5028879;28;20468;-66
2023/03/16 10:51:10;;;;;;;5.60;3.60;;;10.70;99.90;;;;;;5024173;28;20423;-66
2023/03/16 10:53:39;;;;;;;4.43;3.80;;;10.80;99.90;;;;;;5024590;28;20807;-66
2023/03/16 10:56:24;;;;;;;3.50;3.10;;;10.90;99.90;;;;;;5025703;28;20446;-65
2023/03/16 10:58:50;;;;;;;3.70;3.40;;;11.10;99.90;;;;;;5030012;28;20430;-65
2023/03/16 11:01:27;;;;;;;4.73;3.23;;;11.20;99.90;;;;;;5027089;28;20475;-65
2023/03/16 11:03:55;;;;;;;3.57;3.27;;;11.30;99.90;;;;;;5029741;28;20418;-65
2023/03/16 11:06:32;;;;;;;5.33;3.23;;;11.50;99.90;;;;;;5028878;28;20491;-65
2023/03/16 11:09:18;;;;;;;3.20;2.90;;;11.90;99.90;;;;;;5025889;28;20448;-65
2023/03/16 11:11:48;;;;;;;6.37;3.03;;;12.30;99.90;;;;;;5028296;28;20526;-65
2023/03/16 11:14:17;;;;;;;3.43;3.07;;;12.80;99.90;;;;;;5026565;28;20512;-65
2023/03/16 11:17:15;;;;;;;3.27;2.60;;;13.30;99.90;;;;;;5029451;28;20696;-65
2023/03/16 11:19:48;;;;;;;4.33;3.07;;;13.70;99.90;;;;;;5026464;28;21088;-65
2023/03/16 11:22:17;;;;;;;3.73;2.90;;;14.20;99.90;;;;;;5029184;28;20431;-65
2023/03/16 11:25:03;;;;;;;6.40;3.53;;;14.30;99.90;;;;;;5026519;28;20429;-66
2023/03/16 11:28:11;;;;;;;3.00;2.70;;;14.70;99.90;;;;;;5032377;28;20840;-66
2023/03/16 11:30:43;;;;;;;3.10;2.80;;;14.90;99.90;;;;;;5037729;28;20445;-65
2023/03/16 11:33:12;;;;;;;3.60;2.77;;;15.10;99.90;;;;;;5029469;28;20533;-66
2023/03/16 11:35:54;;;;;;;2.83;2.53;;;15.30;99.90;;;;;;5032158;28;20481;-66
2023/03/16 11:38:25;;;;;;;5.40;3.07;;;15.60;99.90;;;;;;5030364;28;20557;-65
2023/03/16 11:41:13;;;;;;;3.77;2.70;;;15.70;99.90;;;;;;5033480;28;20809;-66
2023/03/16 11:43:53;;;;;;;3.63;2.33;;;15.90;99.90;;;;;;5033405;28;20493;-66
2023/03/16 11:46:47;;;;;;;3.10;2.80;;;16.10;99.40;;;;;;5031509;28;20454;-65
2023/03/16 11:49:43;;;;;;;3.30;2.30;;;16.20;98.40;;;;;;5032581;28;20439;-66
2023/03/16 11:52:22;;;;;;;2.90;2.50;;;16.40;97.00;;;;;;5030947;28;20431;-66
2023/03/16 11:55:09;;;;;;;3.40;2.30;;;16.50;96.20;;;;;;5030950;28;20431;-66
2023/03/16 11:58:02;;;;;;;3.33;3.03;;;16.60;95.10;;;;;;5033847;28;20687;-66
2023/03/16 12:00:46;;;;;;;2.97;2.43;;;16.80;93.40;;;;;;5027136;28;20474;-66
2023/03/16 12:03:27;;;;;;;3.33;2.83;;;17.00;92.80;;;;;;5033743;28;20918;-66
2023/03/16 12:06:19;;;;;;;3.13;2.70;;;17.10;92.80;;;;;;5027584;28;20414;-65
2023/03/16 12:08:53;;;;;;;3.00;2.70;;;17.30;90.80;;;;;;5027735;28;20431;-66
2023/03/16 12:12:01;;;;;;;4.10;2.40;;;17.90;92.30;;;;;;5029162;28;20533;-66
2023/03/16 12:14:31;;;;;;;2.90;2.60;;;20.50;89.20;;;;;;5032748;28;20630;-66
2023/03/16 12:17:02;;;;;;;2.80;2.60;;;23.30;81.50;;;;;;5031038;28;20439;-66
2023/03/16 12:19:42;;;;;;;3.50;2.60;;;25.30;72.50;;;;;;5029747;28;20756;-66
2023/03/16 12:22:29;;;;;;;3.40;2.60;;;27.60;61.80;;;;;;5025385;28;20529;-66
2023/03/16 12:24:55;;;;;;;2.40;2.20;;;29.40;53.10;;;;;;5028157;28;20756;-67
2023/03/16 12:27:35;;;;;;;4.87;3.33;;;30.70;48.50;;;;;;5028331;28;20450;-67
2023/03/16 12:30:24;;;;;;;2.70;2.50;;;31.50;42.80;;;;;;5029733;28;20295;-66
2023/03/16 12:33:04;;;;;;;3.53;2.73;;;32.70;39.80;;;;;;5032710;28;20450;-67
2023/03/16 12:35:45;;;;;;;2.70;2.50;;;33.70;37.70;;;;;;5029918;28;20435;-67
2023/03/16 12:38:20;;;;;;;4.20;3.10;;;34.10;35.50;;;;;;5027430;28;20487;-66
2023/03/16 12:41:07;;;;;;;2.97;2.77;;;33.80;33.80;;;;;;5026076;28;20453;-66
2023/03/16 12:43:56;;;;;;;3.90;3.20;;;33.90;33.80;;;;;;5029196;28;20413;-66
2023/03/16 12:46:45;;;;;;;4.37;2.90;;;34.70;33.50;;;;;;5035245;28;20417;-66
2023/03/16 12:49:11;;;;;;;3.77;3.20;;;35.80;32.90;;;;;;5027683;28;21075;-66
2023/03/16 12:51:40;;;;;;;4.53;4.13;;;36.50;31.30;;;;;;5027555;28;21128;-66
2023/03/16 12:54:17;;;;;;;3.33;3.03;;;37.00;30.10;;;;;;5024228;28;20449;-66
2023/03/16 12:56:46;;;;;;;3.00;2.40;;;37.50;29.60;;;;;;5035618;28;20423;-66
2023/03/16 12:59:37;;;;;;;3.33;3.00;;;37.90;29.30;;;;;;5031374;28;20431;-67
2023/03/16 13:02:05;;;;;;;4.50;3.00;;;38.50;29.00;;;;;;5027897;28;21125;-66
2023/03/16 13:04:37;;;;;;;2.77;2.57;;;39.10;28.50;;;;;;5039125;28;20401;-67
2023/03/16 13:07:10;;;;;;;3.27;2.97;;;39.50;27.80;;;;;;5033532;28;20443;-67